Latest Weather Observations for Carnarvon

IDW60801

Issued at 6:13 am WST Tuesday 6 December 2022 (issued every 10 minutes, with the page automatically refreshed every 10 minutes)

About weather observations | Map of weather stations | Latest weather observations for WA | Other Formats
Station Details ID: 006011 Name: CARNARVON AIRPORT Lat: -24.89 Lon: 113.67 Height: 4.0 m
Data from the previous 72 hours. | See also: Recent months at Carnarvon
Date/Time
WST
Temp
°C
App
Temp
°C
Dew
Point
°C
Rel
Hum
%
Delta-T
°C
Wind Press
QNH
hPa
Press
MSL
hPa
Rain since
9am
mm
Dir  Spd
km/h
Gust
km/h
Spd
kts
Gust
kts
06/06:00am 20.7 18.1 15.9 74 2.9 S 24 33 13 18 1010.8 1010.8 0.0
06/05:30am 20.5 17.5 15.9 75 2.7 S 26 35 14 19 1010.7 1010.7 0.0
06/05:00am 20.8 18.2 16.0 74 2.9 S 24 33 13 18 1010.7 1010.7 0.0
06/04:30am 20.6 17.6 15.8 74 2.9 S 26 35 14 19 1010.5 1010.5 0.0
06/04:00am 20.8 17.9 16.0 74 2.9 S 26 33 14 18 1010.3 1010.3 0.0
06/03:30am 20.7 17.6 15.7 73 3.0 S 26 35 14 19 1010.5 1010.5 0.0
06/03:00am 21.1 17.4 16.1 73 3.0 S 30 39 16 21 1010.6 1010.6 0.0
06/02:30am 21.2 18.0 16.2 73 3.0 S 28 35 15 19 1010.9 1010.9 0.0
06/02:00am 21.3 17.7 16.3 73 3.0 S 30 37 16 20 1011.0 1011.0 0.0
06/01:30am 21.3 18.1 16.3 73 3.0 S 28 37 15 20 1011.2 1011.2 0.0
06/01:00am 21.4 18.2 16.4 73 3.0 S 28 39 15 21 1011.5 1011.5 0.0
06/12:30am 21.3 18.6 16.5 74 2.9 S 26 35 14 19 1011.5 1011.5 0.0
06/12:00am 21.5 17.9 16.2 72 3.2 S 30 37 16 20 1011.7 1011.7 0.0
 
Date/Time
WST
Temp
°C
App
Temp
°C
Dew
Point
°C
Rel
Hum
%
Delta-T
°C
Wind Press
QNH
hPa
Press
MSL
hPa
Rain since
9am
mm
Dir  Spd
km/h
Gust
km/h
Spd
kts
Gust
kts
05/11:30pm 21.6 18.1 16.6 73 3.0 S 30 39 16 21 1011.9 1011.9 0.0
05/11:00pm 21.9 19.0 17.1 74 2.9 S 28 37 15 20 1012.1 1012.1 0.0
05/10:30pm 22.3 19.5 17.4 74 3.0 S 28 37 15 20 1012.3 1012.3 0.0
05/10:00pm 22.6 19.6 17.7 74 3.0 S 30 43 16 23 1012.2 1012.2 0.0
05/09:30pm 22.7 19.4 18.3 76 2.8 SSW 33 43 18 23 1012.1 1012.1 0.0
05/09:00pm 22.7 18.6 17.4 72 3.3 SSW 35 44 19 24 1012.0 1012.0 0.0
05/08:30pm 22.8 19.0 18.1 75 2.9 SSW 35 46 19 25 1011.8 1011.8 0.0
05/08:00pm 22.9 19.0 17.8 73 3.2 SSW 35 44 19 24 1011.7 1011.7 0.0
05/07:30pm 23.1 19.8 18.0 73 3.2 SSW 32 41 17 22 1011.5 1011.5 0.0
05/07:00pm 23.0 18.8 17.2 70 3.6 SSW 35 43 19 23 1011.4 1011.4 0.0
05/06:30pm 23.5 19.8 17.5 69 3.7 SSW 33 44 18 24 1011.1 1011.1 0.0
05/06:00pm 24.3 20.6 17.5 66 4.2 SSW 33 46 18 25 1010.8 1010.8 0.0
05/05:30pm 24.6 21.2 18.1 67 4.1 SSW 33 44 18 24 1010.6 1010.6 0.0
05/05:00pm 25.2 21.2 17.7 63 4.7 SW 35 46 19 25 1010.4 1010.4 0.0
05/04:30pm 25.4 21.4 17.6 62 4.9 SSW 35 44 19 24 1010.5 1010.5 0.0
05/04:00pm 26.2 22.9 17.0 57 5.7 SW 30 41 16 22 1010.7 1010.7 0.0
05/03:30pm 26.1 22.3 16.6 55 5.9 SSW 32 39 17 21 1010.7 1010.7 0.0
05/03:00pm 26.9 23.3 17.7 57 5.8 SSW 33 41 18 22 1010.8 1010.8 0.0
05/02:30pm 26.5 22.9 17.3 57 5.8 SSW 32 39 17 21 1011.0 1011.0 0.0
05/02:00pm 26.4 23.2 17.2 57 5.7 SSW 30 39 16 21 1011.3 1011.3 0.0
05/01:30pm 25.7 22.2 16.5 56 5.7 SW 30 37 16 20 1011.6 1011.6 0.0
05/01:00pm 25.6 22.4 16.2 56 5.8 SSW 28 35 15 19 1011.9 1011.9 0.0
05/12:30pm 25.3 22.5 16.4 57 5.5 SW 26 35 14 19 1012.2 1012.2 0.0
05/12:00pm 25.6 23.1 16.2 56 5.8 SSW 24 30 13 16 1012.4 1012.4 0.0
05/11:30am 25.0 22.4 15.9 57 5.5 SW 24 30 13 16 1012.7 1012.7 0.0
05/11:00am 25.0 22.3 15.6 56 5.7 SSW 24 30 13 16 1012.7 1012.7 0.0
05/10:30am 25.2 22.4 16.4 58 5.4 SSW 26 33 14 18 1012.7 1012.7 0.0
05/10:00am 24.2 20.8 15.9 59 5.0 SSW 28 35 15 19 1012.9 1012.9 0.0
05/09:30am 24.5 21.4 16.5 61 4.9 SSW 28 33 15 18 1012.9 1012.9 0.0
05/09:00am 23.5 20.7 16.3 64 4.4 SSW 26 33 14 18 1012.9 1012.9 0.0
05/08:30am 24.1 21.4 16.6 63 4.6 S 26 32 14 17 1012.8 1012.8 0.0
05/08:00am 22.7 19.4 16.0 66 4.0 S 28 35 15 19 1012.9 1012.9 0.0
05/07:30am 22.8 19.4 15.9 65 4.2 S 28 35 15 19 1012.6 1012.6 0.0
05/07:00am 22.5 19.2 16.1 67 3.9 S 28 35 15 19 1012.3 1012.3 0.0
05/06:30am 21.4 19.6 16.1 72 3.2 S 20 26 11 14 1012.0 1012.0 0.0
05/06:00am 20.7 18.9 15.9 74 2.9 S 20 26 11 14 1011.7 1011.7 0.0
05/05:30am 20.7 18.5 15.9 74 2.9 S 22 30 12 16 1011.5 1011.5 0.0
05/05:00am 20.6 17.9 15.6 73 3.0 S 24 32 13 17 1011.4 1011.4 0.0
05/04:30am 20.9 17.6 16.1 74 2.9 S 28 33 15 18 1011.3 1011.3 0.0
05/04:00am 20.8 18.2 16.0 74 2.9 S 24 33 13 18 1011.2 1011.2 0.0
05/03:30am 21.1 18.2 16.1 73 3.0 S 26 32 14 17 1011.1 1011.1 0.0
05/03:00am 21.3 18.5 16.3 73 3.0 S 26 32 14 17 1011.1 1011.1 0.0
05/02:30am 21.3 17.2 16.0 72 3.2 S 32 43 17 23 1011.2 1011.2 0.0
05/02:00am 21.4 18.3 16.6 74 2.9 S 28 35 15 19 1011.4 1011.4 0.0
05/01:30am 21.4 17.6 16.6 74 2.9 S 32 41 17 22 1011.6 1011.6 0.0
05/01:00am 21.6 18.5 16.6 73 3.0 S 28 39 15 21 1011.8 1011.8 0.0
05/12:30am 21.7 18.7 16.9 74 2.9 S 28 35 15 19 1012.1 1012.1 0.0
05/12:00am 21.6 17.8 16.6 73 3.0 S 32 41 17 22 1012.5 1012.5 0.0
 
Date/Time
WST
Temp
°C
App
Temp
°C
Dew
Point
°C
Rel
Hum
%
Delta-T
°C
Wind Press
QNH
hPa
Press
MSL
hPa
Rain since
9am
mm
Dir  Spd
km/h
Gust
km/h
Spd
kts
Gust
kts
04/11:30pm 21.8 17.8 16.7 73 3.1 S 33 43 18 23 1012.8 1012.8 0.0
04/11:00pm 21.9 18.3 17.3 75 2.8 SSW 32 41 17 22 1012.7 1012.7 0.0
04/10:30pm 22.1 18.5 17.2 74 3.0 SSW 32 43 17 23 1012.9 1012.9 0.0
04/10:00pm 22.4 19.4 17.8 75 2.9 S 30 39 16 21 1013.1 1013.1 0.0
04/09:30pm 22.5 19.4 18.5 78 2.5 SSW 32 41 17 22 1013.0 1013.0 0.0
04/09:00pm 22.6 19.5 18.4 77 2.6 SSW 32 41 17 22 1012.8 1012.8 0.0
04/08:30pm 22.7 19.1 17.6 73 3.2 SSW 33 43 18 23 1012.8 1012.8 0.0
04/08:00pm 22.8 19.4 17.7 73 3.2 SSW 32 41 17 22 1012.5 1012.5 0.0
04/07:30pm 23.0 19.7 17.9 73 3.2 SSW 32 39 17 21 1012.2 1012.2 0.0
04/07:00pm 23.3 19.8 17.5 70 3.6 SSW 32 43 17 23 1011.8 1011.8 0.0
04/06:30pm 23.8 20.1 17.5 68 3.9 SSW 33 43 18 23 1011.4 1011.4 0.0
04/06:00pm 24.5 20.8 17.5 65 4.4 SSW 33 43 18 23 1011.2 1011.2 0.0
04/05:30pm 24.9 21.2 17.4 63 4.7 SSW 33 43 18 23 1011.1 1011.1 0.0
04/05:00pm 25.2 21.4 17.1 60 5.0 SSW 33 43 18 23 1011.0 1011.0 0.0
04/04:30pm 25.8 22.3 17.4 59 5.2 SW 32 43 17 23 1011.0 1011.0 0.0
04/04:00pm 26.0 22.5 17.4 59 5.4 SSW 32 43 17 23 1011.0 1011.0 0.0
04/03:30pm 26.2 22.5 17.0 57 5.7 SSW 32 39 17 21 1011.1 1011.1 0.0
04/03:00pm 26.0 22.2 17.1 58 5.5 SW 33 43 18 23 1011.3 1011.3 0.0
04/02:30pm 25.9 22.3 17.3 59 5.4 SSW 32 39 17 21 1011.5 1011.5 0.0
04/02:00pm 25.6 22.5 17.5 61 5.1 SSW 30 39 16 21 1011.6 1011.6 0.0
04/01:30pm 26.0 23.2 17.4 59 5.4 SW 28 35 15 19 1011.9 1011.9 0.0
04/01:00pm 25.3 23.0 17.5 62 4.9 SSW 26 33 14 18 1012.0 1012.0 0.0
04/12:30pm 25.6 23.4 17.0 59 5.3 SSW 24 33 13 18 1012.4 1012.4 0.0
04/12:00pm 25.7 22.7 16.8 58 5.5 SSW 28 33 15 18 1012.5 1012.5 0.0
04/11:30am 25.7 22.8 17.1 59 5.3 SSW 28 35 15 19 1012.7 1012.7 0.0
04/11:00am 25.3 21.7 16.2 57 5.6 SSW 30 35 16 19 1013.0 1013.0 0.0
04/10:30am 25.2 21.7 16.6 59 5.3 SSW 30 39 16 21 1013.1 1013.1 0.0
04/10:00am 25.1 21.4 16.0 57 5.5 S 30 37 16 20 1013.1 1013.1 0.0
04/09:30am 24.6 22.0 16.8 62 4.8 S 26 35 14 19 1013.1 1013.1 0.0
04/09:00am 25.2 21.7 16.4 58 5.4 SSE 30 39 16 21 1013.0 1013.0 0.0
04/08:30am 24.1 20.8 16.1 61 4.9 S 28 35 15 19 1013.1 1013.1 0.0
04/08:00am 23.7 19.9 15.7 61 4.8 SSE 30 44 16 24 1013.1 1013.1 0.0
04/07:30am 22.9 18.8 16.0 65 4.2 SSE 32 37 17 20 1012.8 1012.8 0.0
04/07:00am 22.3 18.7 16.3 69 3.6 SSE 30 39 16 21 1012.4 1012.4 0.0
04/06:30am 21.4 19.8 16.6 74 2.9 SSE 20 28 11 15 1012.1 1012.1 0.0
04/06:00am 21.0 19.7 17.2 79 2.3 S 20 28 11 15 1011.9 1011.9 0.0
04/05:30am 20.8 18.9 16.8 78 2.4 S 22 32 12 17 1011.5 1011.5 0.0
04/05:00am 21.1 19.7 17.1 78 2.4 S 20 26 11 14 1011.3 1011.3 0.0
04/04:30am 20.8 18.9 16.8 78 2.4 S 22 30 12 16 1011.0 1011.0 0.0
04/04:00am 20.8 18.3 17.0 79 2.3 S 26 33 14 18 1010.7 1010.7 0.0
04/03:30am 20.9 18.0 17.1 79 2.3 S 28 37 15 20 1010.7 1010.7 0.0
04/03:00am 21.1 17.8 16.9 77 2.6 S 30 37 16 20 1010.5 1010.5 0.0
04/02:30am 21.3 17.6 16.9 76 2.7 SSW 32 41 17 22 1010.3 1010.3 0.0
04/02:00am 21.2 18.7 17.2 78 2.5 S 26 35 14 19 1010.4 1010.4 0.0
04/01:30am 21.2 17.9 17.0 77 2.6 S 30 37 16 20 1010.5 1010.5 0.0
04/01:00am 21.3 17.6 16.9 76 2.7 S 32 43 17 23 1010.7 1010.7 0.0
04/12:30am 21.4 18.5 17.0 76 2.7 S 28 37 15 20 1011.0 1011.0 0.0
04/12:00am 21.5 18.6 17.1 76 2.7 SSW 28 35 15 19 1011.4 1011.4 0.0
 
Date/Time
WST
Temp
°C
App
Temp
°C
Dew
Point
°C
Rel
Hum
%
Delta-T
°C
Wind Press
QNH
hPa
Press
MSL
hPa
Rain since
9am
mm
Dir  Spd
km/h
Gust
km/h
Spd
kts
Gust
kts
03/11:30pm 21.6 18.6 16.8 74 2.9 SSW 28 37 15 20 1012.0 1012.0 0.0
03/11:00pm 21.7 18.6 16.6 73 3.1 SSW 28 35 15 19 1012.2 1012.2 0.0
03/10:30pm 21.8 18.3 16.5 72 3.2 S 30 39 16 21 1012.4 1012.4 0.0
03/10:00pm 22.2 19.4 17.3 74 3.0 S 28 39 15 21 1012.6 1012.6 0.0
03/09:30pm 22.2 18.9 17.1 73 3.1 S 30 39 16 21 1012.5 1012.5 0.0
03/09:00pm 22.3 18.8 17.4 74 3.0 SSW 32 39 17 21 1012.2 1012.2 0.0
03/08:30pm 22.3 18.7 17.2 73 3.1 SSW 32 41 17 22 1012.0 1012.0 0.0
03/08:00pm 22.4 18.8 17.3 73 3.1 SSW 32 44 17 24 1011.8 1011.8 0.0
03/07:30pm 22.5 18.6 17.0 71 3.4 SSW 33 44 18 24 1011.4 1011.4 0.0
03/07:00pm 22.8 18.3 17.3 71 3.4 SSW 37 44 20 24 1011.0 1011.0 0.0
03/06:30pm 23.2 18.6 17.2 69 3.7 SSW 37 46 20 25 1010.6 1010.6 0.0
03/06:00pm 24.2 20.8 17.7 67 4.1 SSW 32 41 17 22 1010.4 1010.4 0.0
03/05:30pm 24.3 20.1 17.1 64 4.5 SSW 35 48 19 26 1010.1 1010.1 0.0
03/05:00pm 24.8 20.5 16.8 61 4.9 SSW 35 46 19 25 1009.8 1009.8 0.0
03/04:30pm 25.5 21.4 16.4 57 5.6 SSW 33 41 18 22 1009.6 1009.6 0.0
03/04:00pm 25.5 20.6 16.4 57 5.6 SSW 37 44 20 24 1009.6 1009.6 0.0
03/03:30pm 26.5 22.8 17.0 56 5.9 SSW 32 43 17 23 1009.7 1009.7 0.0
03/03:00pm 25.9 21.7 16.2 55 6.0 SW 33 39 18 21 1009.8 1009.8 0.0
03/02:30pm 26.4 22.2 16.1 53 6.3 SSW 33 41 18 22 1009.9 1009.9 0.0
03/02:00pm 26.2 22.3 16.4 54 6.0 SSW 32 41 17 22 1010.2 1010.2 0.0
03/01:30pm 26.9 23.8 17.4 56 6.0 SW 30 35 16 19 1010.5 1010.5 0.0
03/01:00pm 25.7 22.9 16.3 56 5.8 SSW 26 33 14 18 1010.7 1010.7 0.0
03/12:30pm 25.9 23.0 17.0 58 5.5 SW 28 33 15 18 1010.9 1010.9 0.0
03/12:00pm 24.9 21.2 16.9 61 4.9 SSW 32 39 17 21 1011.1 1011.1 0.0
03/11:30am 25.4 22.0 16.8 59 5.3 SSW 30 39 16 21 1011.6 1011.6 0.0
03/11:00am 25.1 21.9 16.3 58 5.4 SSW 28 35 15 19 1011.9 1011.9 0.0
03/10:30am 24.6 21.7 17.1 63 4.6 SSW 28 33 15 18 1011.9 1011.9 0.0
03/10:00am 24.5 22.0 17.0 63 4.6 SSW 26 32 14 17 1012.1 1012.1 0.0
03/09:30am 23.7 21.3 16.5 64 4.4 SSW 24 32 13 17 1012.2 1012.2 0.0
03/09:00am 23.9 20.9 16.7 64 4.4 SSW 28 33 15 18 1012.2 1012.2 -
03/08:30am 23.1 19.9 16.4 66 4.1 SSW 28 32 15 17 1012.1 1012.1 -
03/08:00am 22.7 20.0 16.5 68 3.8 SSW 26 32 14 17 1012.0 1012.0 -
03/07:30am 22.5 19.9 16.8 70 3.5 SSW 26 32 14 17 1011.6 1011.6 -
03/07:00am 21.4 19.2 16.8 75 2.8 SSW 24 32 13 17 1011.2 1011.2 -
03/06:30am 21.2 19.1 17.2 78 2.4 SSW 24 30 13 16 1010.8 1010.8 -

Other formats

Comma delimited format used in spreadsheet applications
http://www.bom.gov.au/fwo/IDW60801/IDW60801.94300.axf

JavaScript Object Notation format (JSON) in row-major order
http://www.bom.gov.au/fwo/IDW60801/IDW60801.94300.json

Data quality

Most of these data are generated automatically and are frequently updated. Quality checks on data are not normally performed. It is possible for incorrect values to appear. Refer to information at About Latest Weather Observations and please check the disclaimer before using these data.